sensor_id;sensor_type;location;lat;lon;timestamp;temperature;humidity
13223;DHT22;6676;45.192;5.722;2022-08-05T00:00:55;28.20;93.70
13223;DHT22;6676;45.192;5.722;2022-08-05T00:03:49;28.20;93.80
13223;DHT22;6676;45.192;5.722;2022-08-05T00:06:41;28.10;94.00
13223;DHT22;6676;45.192;5.722;2022-08-05T00:09:32;28.00;94.30
13223;DHT22;6676;45.192;5.722;2022-08-05T00:12:23;28.00;94.50
13223;DHT22;6676;45.192;5.722;2022-08-05T00:15:14;28.10;94.50
13223;DHT22;6676;45.192;5.722;2022-08-05T00:18:07;28.00;94.70
13223;DHT22;6676;45.192;5.722;2022-08-05T00:21:00;27.90;95.00
13223;DHT22;6676;45.192;5.722;2022-08-05T00:23:57;27.80;95.40
13223;DHT22;6676;45.192;5.722;2022-08-05T00:26:50;27.80;95.60
13223;DHT22;6676;45.192;5.722;2022-08-05T00:29:42;27.80;95.90
13223;DHT22;6676;45.192;5.722;2022-08-05T00:32:33;27.80;95.90
13223;DHT22;6676;45.192;5.722;2022-08-05T00:35:24;27.80;96.10
13223;DHT22;6676;45.192;5.722;2022-08-05T00:38:17;27.80;96.30
13223;DHT22;6676;45.192;5.722;2022-08-05T00:41:09;27.70;96.50
13223;DHT22;6676;45.192;5.722;2022-08-05T00:44:02;27.70;96.80
13223;DHT22;6676;45.192;5.722;2022-08-05T00:46:54;27.60;97.10
13223;DHT22;6676;45.192;5.722;2022-08-05T00:49:46;27.70;97.40
13223;DHT22;6676;45.192;5.722;2022-08-05T00:52:39;27.60;97.60
13223;DHT22;6676;45.192;5.722;2022-08-05T00:55:32;27.60;97.90
13223;DHT22;6676;45.192;5.722;2022-08-05T00:58:24;27.60;98.30
13223;DHT22;6676;45.192;5.722;2022-08-05T01:01:16;27.60;98.50
13223;DHT22;6676;45.192;5.722;2022-08-05T01:04:10;27.50;98.80
13223;DHT22;6676;45.192;5.722;2022-08-05T01:07:02;27.40;99.30
13223;DHT22;6676;45.192;5.722;2022-08-05T01:09:54;27.40;99.70
13223;DHT22;6676;45.192;5.722;2022-08-05T01:12:50;27.40;99.90
13223;DHT22;6676;45.192;5.722;2022-08-05T01:15:45;27.30;99.90
13223;DHT22;6676;45.192;5.722;2022-08-05T01:18:41;27.20;99.90
13223;DHT22;6676;45.192;5.722;2022-08-05T01:25:19;27.10;99.90
13223;DHT22;6676;45.192;5.722;2022-08-05T01:28:23;27.10;99.90
13223;DHT22;6676;45.192;5.722;2022-08-05T01:31:21;27.20;99.90
13223;DHT22;6676;45.192;5.722;2022-08-05T01:34:16;27.10;99.90
13223;DHT22;6676;45.192;5.722;2022-08-05T01:37:11;27.10;99.90
13223;DHT22;6676;45.192;5.722;2022-08-05T01:40:07;27.10;99.90
13223;DHT22;6676;45.192;5.722;2022-08-05T01:43:01;27.20;99.90
13223;DHT22;6676;45.192;5.722;2022-08-05T01:45:53;27.20;99.90
13223;DHT22;6676;45.192;5.722;2022-08-05T01:48:46;27.10;99.90
13223;DHT22;6676;45.192;5.722;2022-08-05T01:51:39;27.10;99.90
13223;DHT22;6676;45.192;5.722;2022-08-05T01:54:35;27.10;99.90
13223;DHT22;6676;45.192;5.722;2022-08-05T01:57:29;27.10;99.90
13223;DHT22;6676;45.192;5.722;2022-08-05T02:00:24;27.00;99.90
13223;DHT22;6676;45.192;5.722;2022-08-05T02:03:20;27.00;99.90
13223;DHT22;6676;45.192;5.722;2022-08-05T02:06:13;27.00;99.90
13223;DHT22;6676;45.192;5.722;2022-08-05T02:09:07;26.90;99.90
13223;DHT22;6676;45.192;5.722;2022-08-05T02:12:03;26.80;99.90
13223;DHT22;6676;45.192;5.722;2022-08-05T02:14:59;26.80;99.90
13223;DHT22;6676;45.192;5.722;2022-08-05T02:17:55;26.80;99.90
13223;DHT22;6676;45.192;5.722;2022-08-05T02:20:51;26.80;99.90
13223;DHT22;6676;45.192;5.722;2022-08-05T02:23:47;26.80;99.90
13223;DHT22;6676;45.192;5.722;2022-08-05T02:26:43;26.80;99.90
13223;DHT22;6676;45.192;5.722;2022-08-05T02:29:35;26.70;99.90
13223;DHT22;6676;45.192;5.722;2022-08-05T02:32:28;26.60;99.90
13223;DHT22;6676;45.192;5.722;2022-08-05T02:35:25;26.70;99.90
13223;DHT22;6676;45.192;5.722;2022-08-05T02:38:19;26.60;99.90
13223;DHT22;6676;45.192;5.722;2022-08-05T02:41:13;26.60;99.90
13223;DHT22;6676;45.192;5.722;2022-08-05T02:44:08;26.60;99.90
13223;DHT22;6676;45.192;5.722;2022-08-05T02:47:02;26.40;99.90
13223;DHT22;6676;45.192;5.722;2022-08-05T02:49:55;26.40;99.90
13223;DHT22;6676;45.192;5.722;2022-08-05T02:52:47;26.30;99.90
13223;DHT22;6676;45.192;5.722;2022-08-05T02:55:38;26.40;99.90
13223;DHT22;6676;45.192;5.722;2022-08-05T02:58:32;26.40;99.90
13223;DHT22;6676;45.192;5.722;2022-08-05T03:01:25;26.50;99.90
13223;DHT22;6676;45.192;5.722;2022-08-05T03:04:21;26.60;99.90
13223;DHT22;6676;45.192;5.722;2022-08-05T03:07:12;26.50;99.90
13223;DHT22;6676;45.192;5.722;2022-08-05T03:10:08;26.50;99.90
13223;DHT22;6676;45.192;5.722;2022-08-05T03:13:02;26.40;99.90
13223;DHT22;6676;45.192;5.722;2022-08-05T03:15:53;26.40;99.90
13223;DHT22;6676;45.192;5.722;2022-08-05T03:18:46;26.40;99.90
13223;DHT22;6676;45.192;5.722;2022-08-05T03:21:37;26.40;99.90
13223;DHT22;6676;45.192;5.722;2022-08-05T03:24:37;26.40;99.90
13223;DHT22;6676;45.192;5.722;2022-08-05T03:27:30;26.40;99.90
13223;DHT22;6676;45.192;5.722;2022-08-05T03:30:23;26.20;99.90
13223;DHT22;6676;45.192;5.722;2022-08-05T03:33:17;26.00;99.90
13223;DHT22;6676;45.192;5.722;2022-08-05T03:36:10;25.90;99.90
13223;DHT22;6676;45.192;5.722;2022-08-05T03:39:07;25.70;99.90
13223;DHT22;6676;45.192;5.722;2022-08-05T03:41:59;25.60;99.90
13223;DHT22;6676;45.192;5.722;2022-08-05T03:44:50;25.50;99.90
13223;DHT22;6676;45.192;5.722;2022-08-05T03:47:41;25.40;99.90
13223;DHT22;6676;45.192;5.722;2022-08-05T03:50:38;25.30;99.90
13223;DHT22;6676;45.192;5.722;2022-08-05T03:53:31;25.20;99.90
13223;DHT22;6676;45.192;5.722;2022-08-05T03:56:27;25.20;99.90
13223;DHT22;6676;45.192;5.722;2022-08-05T03:59:23;25.20;99.90
13223;DHT22;6676;45.192;5.722;2022-08-05T04:02:17;25.20;99.90
13223;DHT22;6676;45.192;5.722;2022-08-05T04:05:12;25.20;99.90
13223;DHT22;6676;45.192;5.722;2022-08-05T04:08:08;25.20;99.90
13223;DHT22;6676;45.192;5.722;2022-08-05T04:11:02;25.30;99.90
13223;DHT22;6676;45.192;5.722;2022-08-05T04:13:54;25.40;99.90
13223;DHT22;6676;45.192;5.722;2022-08-05T04:16:47;25.30;99.90
13223;DHT22;6676;45.192;5.722;2022-08-05T04:19:45;25.30;99.90
13223;DHT22;6676;45.192;5.722;2022-08-05T04:25:40;25.40;99.90
13223;DHT22;6676;45.192;5.722;2022-08-05T04:28:33;25.60;99.90
13223;DHT22;6676;45.192;5.722;2022-08-05T04:31:25;25.70;99.90
13223;DHT22;6676;45.192;5.722;2022-08-05T04:34:18;25.70;99.90
13223;DHT22;6676;45.192;5.722;2022-08-05T04:37:12;25.70;99.90
13223;DHT22;6676;45.192;5.722;2022-08-05T04:40:08;25.80;99.90
13223;DHT22;6676;45.192;5.722;2022-08-05T04:42:59;25.80;99.90
13223;DHT22;6676;45.192;5.722;2022-08-05T04:45:51;25.80;99.90
13223;DHT22;6676;45.192;5.722;2022-08-05T04:48:44;25.80;99.90
13223;DHT22;6676;45.192;5.722;2022-08-05T04:51:37;25.80;99.90
13223;DHT22;6676;45.192;5.722;2022-08-05T04:54:30;25.90;99.90
13223;DHT22;6676;45.192;5.722;2022-08-05T04:57:21;25.90;99.90
13223;DHT22;6676;45.192;5.722;2022-08-05T05:00:15;25.80;99.90
13223;DHT22;6676;45.192;5.722;2022-08-05T05:03:09;25.80;99.90
13223;DHT22;6676;45.192;5.722;2022-08-05T05:06:02;25.70;99.90
13223;DHT22;6676;45.192;5.722;2022-08-05T05:08:54;25.60;99.90
13223;DHT22;6676;45.192;5.722;2022-08-05T05:11:46;25.70;99.90
13223;DHT22;6676;45.192;5.722;2022-08-05T05:14:38;25.70;99.90
13223;DHT22;6676;45.192;5.722;2022-08-05T05:17:37;25.60;99.90
13223;DHT22;6676;45.192;5.722;2022-08-05T05:20:31;25.60;99.90
13223;DHT22;6676;45.192;5.722;2022-08-05T05:23:27;25.60;99.90
13223;DHT22;6676;45.192;5.722;2022-08-05T05:26:19;25.60;99.90
13223;DHT22;6676;45.192;5.722;2022-08-05T05:29:12;25.70;99.90
13223;DHT22;6676;45.192;5.722;2022-08-05T05:32:05;25.60;99.90
13223;DHT22;6676;45.192;5.722;2022-08-05T05:34:58;25.70;99.90
13223;DHT22;6676;45.192;5.722;2022-08-05T05:37:52;25.80;99.90
13223;DHT22;6676;45.192;5.722;2022-08-05T05:40:45;25.90;99.90
13223;DHT22;6676;45.192;5.722;2022-08-05T05:43:48;25.90;99.90
13223;DHT22;6676;45.192;5.722;2022-08-05T05:46:41;25.90;99.90
13223;DHT22;6676;45.192;5.722;2022-08-05T05:49:32;25.80;99.90
13223;DHT22;6676;45.192;5.722;2022-08-05T05:52:24;25.90;99.90
13223;DHT22;6676;45.192;5.722;2022-08-05T05:55:17;25.90;99.90
13223;DHT22;6676;45.192;5.722;2022-08-05T05:58:09;25.90;99.90
13223;DHT22;6676;45.192;5.722;2022-08-05T06:01:02;25.90;99.90
13223;DHT22;6676;45.192;5.722;2022-08-05T06:03:55;25.90;99.90
13223;DHT22;6676;45.192;5.722;2022-08-05T06:06:47;26.00;99.90
13223;DHT22;6676;45.192;5.722;2022-08-05T06:09:40;26.00;99.90
13223;DHT22;6676;45.192;5.722;2022-08-05T06:12:34;25.90;99.90
13223;DHT22;6676;45.192;5.722;2022-08-05T06:15:27;26.00;99.90
13223;DHT22;6676;45.192;5.722;2022-08-05T06:18:20;26.00;99.90
13223;DHT22;6676;45.192;5.722;2022-08-05T06:21:13;26.00;99.90
13223;DHT22;6676;45.192;5.722;2022-08-05T06:24:08;26.10;99.90
13223;DHT22;6676;45.192;5.722;2022-08-05T06:27:00;26.10;99.90
13223;DHT22;6676;45.192;5.722;2022-08-05T06:29:52;26.20;99.90
13223;DHT22;6676;45.192;5.722;2022-08-05T06:32:45;26.30;99.90
13223;DHT22;6676;45.192;5.722;2022-08-05T06:35:38;26.40;99.90
13223;DHT22;6676;45.192;5.722;2022-08-05T06:38:31;26.50;99.90
13223;DHT22;6676;45.192;5.722;2022-08-05T06:41:23;26.50;99.90
13223;DHT22;6676;45.192;5.722;2022-08-05T06:44:15;26.50;99.90
13223;DHT22;6676;45.192;5.722;2022-08-05T06:47:06;26.60;99.90
13223;DHT22;6676;45.192;5.722;2022-08-05T06:49:59;26.60;99.90
13223;DHT22;6676;45.192;5.722;2022-08-05T06:52:51;26.70;99.90
13223;DHT22;6676;45.192;5.722;2022-08-05T06:55:44;26.70;99.90
13223;DHT22;6676;45.192;5.722;2022-08-05T06:58:37;26.70;99.90
13223;DHT22;6676;45.192;5.722;2022-08-05T07:01:35;26.70;99.90
13223;DHT22;6676;45.192;5.722;2022-08-05T07:04:28;26.80;99.90
13223;DHT22;6676;45.192;5.722;2022-08-05T07:07:21;26.80;99.90
13223;DHT22;6676;45.192;5.722;2022-08-05T07:10:14;26.90;99.90
13223;DHT22;6676;45.192;5.722;2022-08-05T07:13:07;26.90;99.90
13223;DHT22;6676;45.192;5.722;2022-08-05T07:16:19;26.90;99.90
13223;DHT22;6676;45.192;5.722;2022-08-05T07:19:30;26.80;99.90
13223;DHT22;6676;45.192;5.722;2022-08-05T07:22:23;26.60;99.90
13223;DHT22;6676;45.192;5.722;2022-08-05T07:25:16;26.30;99.90
13223;DHT22;6676;45.192;5.722;2022-08-05T07:28:09;26.20;99.90
13223;DHT22;6676;45.192;5.722;2022-08-05T07:31:02;26.30;99.90
13223;DHT22;6676;45.192;5.722;2022-08-05T07:33:53;26.40;99.90
13223;DHT22;6676;45.192;5.722;2022-08-05T07:36:46;26.30;99.90
13223;DHT22;6676;45.192;5.722;2022-08-05T07:39:38;26.30;99.90
13223;DHT22;6676;45.192;5.722;2022-08-05T07:42:31;26.30;99.90
13223;DHT22;6676;45.192;5.722;2022-08-05T07:45:24;26.40;99.90
13223;DHT22;6676;45.192;5.722;2022-08-05T07:48:16;26.50;99.90
13223;DHT22;6676;45.192;5.722;2022-08-05T07:51:09;26.60;99.90
13223;DHT22;6676;45.192;5.722;2022-08-05T07:54:02;26.60;99.90
13223;DHT22;6676;45.192;5.722;2022-08-05T07:56:54;26.60;99.90
13223;DHT22;6676;45.192;5.722;2022-08-05T07:59:46;26.70;99.90
13223;DHT22;6676;45.192;5.722;2022-08-05T08:02:39;26.70;99.90
13223;DHT22;6676;45.192;5.722;2022-08-05T08:05:33;26.80;99.90
13223;DHT22;6676;45.192;5.722;2022-08-05T08:08:25;26.90;99.90
13223;DHT22;6676;45.192;5.722;2022-08-05T08:11:27;27.00;99.90
13223;DHT22;6676;45.192;5.722;2022-08-05T08:14:20;27.20;99.90
13223;DHT22;6676;45.192;5.722;2022-08-05T08:17:11;27.20;99.90
13223;DHT22;6676;45.192;5.722;2022-08-05T08:20:06;27.30;99.90
13223;DHT22;6676;45.192;5.722;2022-08-05T08:23:00;27.50;99.90
13223;DHT22;6676;45.192;5.722;2022-08-05T08:25:52;27.50;99.90
13223;DHT22;6676;45.192;5.722;2022-08-05T08:28:45;27.60;99.90
13223;DHT22;6676;45.192;5.722;2022-08-05T08:31:38;27.70;99.90
13223;DHT22;6676;45.192;5.722;2022-08-05T08:34:30;27.80;99.90
13223;DHT22;6676;45.192;5.722;2022-08-05T08:37:23;27.80;99.90
13223;DHT22;6676;45.192;5.722;2022-08-05T08:40:15;27.80;99.90
13223;DHT22;6676;45.192;5.722;2022-08-05T08:43:21;27.90;99.90
13223;DHT22;6676;45.192;5.722;2022-08-05T08:46:15;28.00;99.90
13223;DHT22;6676;45.192;5.722;2022-08-05T08:49:09;28.00;99.90
13223;DHT22;6676;45.192;5.722;2022-08-05T08:52:10;28.00;99.90
13223;DHT22;6676;45.192;5.722;2022-08-05T08:55:02;27.90;99.90
13223;DHT22;6676;45.192;5.722;2022-08-05T08:57:55;27.90;99.90
13223;DHT22;6676;45.192;5.722;2022-08-05T09:00:47;28.00;99.90
13223;DHT22;6676;45.192;5.722;2022-08-05T09:03:41;28.00;99.90
13223;DHT22;6676;45.192;5.722;2022-08-05T09:06:39;28.10;99.90
13223;DHT22;6676;45.192;5.722;2022-08-05T09:09:31;28.10;99.90
13223;DHT22;6676;45.192;5.722;2022-08-05T09:12:24;28.30;99.90
13223;DHT22;6676;45.192;5.722;2022-08-05T09:15:16;28.40;99.90
13223;DHT22;6676;45.192;5.722;2022-08-05T09:18:29;28.50;99.90
13223;DHT22;6676;45.192;5.722;2022-08-05T09:21:21;28.70;99.90
13223;DHT22;6676;45.192;5.722;2022-08-05T09:24:29;28.80;99.90
13223;DHT22;6676;45.192;5.722;2022-08-05T09:27:33;28.80;99.90
13223;DHT22;6676;45.192;5.722;2022-08-05T09:30:26;29.00;99.90
13223;DHT22;6676;45.192;5.722;2022-08-05T09:33:19;29.20;99.90
13223;DHT22;6676;45.192;5.722;2022-08-05T09:36:13;29.30;99.90
13223;DHT22;6676;45.192;5.722;2022-08-05T09:39:12;29.50;99.90
13223;DHT22;6676;45.192;5.722;2022-08-05T09:42:05;29.70;99.90
13223;DHT22;6676;45.192;5.722;2022-08-05T09:45:10;29.80;99.90
13223;DHT22;6676;45.192;5.722;2022-08-05T09:48:20;29.90;99.90
13223;DHT22;6676;45.192;5.722;2022-08-05T09:51:15;30.00;99.90
13223;DHT22;6676;45.192;5.722;2022-08-05T09:54:07;30.20;99.90
13223;DHT22;6676;45.192;5.722;2022-08-05T09:56:58;30.40;99.90
13223;DHT22;6676;45.192;5.722;2022-08-05T09:59:51;30.50;99.90
13223;DHT22;6676;45.192;5.722;2022-08-05T10:02:52;30.50;99.90
13223;DHT22;6676;45.192;5.722;2022-08-05T10:05:46;30.70;99.90
13223;DHT22;6676;45.192;5.722;2022-08-05T10:08:38;30.90;98.80
13223;DHT22;6676;45.192;5.722;2022-08-05T10:11:32;31.00;99.60
13223;DHT22;6676;45.192;5.722;2022-08-05T10:14:25;31.00;99.40
13223;DHT22;6676;45.192;5.722;2022-08-05T10:17:24;31.10;99.50
13223;DHT22;6676;45.192;5.722;2022-08-05T10:20:17;31.20;99.60
13223;DHT22;6676;45.192;5.722;2022-08-05T10:23:12;31.40;99.50
13223;DHT22;6676;45.192;5.722;2022-08-05T10:26:07;31.50;99.40
13223;DHT22;6676;45.192;5.722;2022-08-05T10:29:03;31.70;98.60
13223;DHT22;6676;45.192;5.722;2022-08-05T10:31:54;31.80;98.80
13223;DHT22;6676;45.192;5.722;2022-08-05T10:34:48;32.00;98.10
13223;DHT22;6676;45.192;5.722;2022-08-05T10:37:41;32.00;96.70
13223;DHT22;6676;45.192;5.722;2022-08-05T10:40:37;32.20;96.10
13223;DHT22;6676;45.192;5.722;2022-08-05T10:43:38;32.20;96.10
13223;DHT22;6676;45.192;5.722;2022-08-05T10:46:45;32.30;96.10
13223;DHT22;6676;45.192;5.722;2022-08-05T10:49:59;32.30;94.10
13223;DHT22;6676;45.192;5.722;2022-08-05T10:52:52;32.40;94.90
13223;DHT22;6676;45.192;5.722;2022-08-05T10:56:03;32.40;94.10
13223;DHT22;6676;45.192;5.722;2022-08-05T10:59:05;32.40;94.60
13223;DHT22;6676;45.192;5.722;2022-08-05T11:02:08;32.60;90.80
13223;DHT22;6676;45.192;5.722;2022-08-05T11:05:04;32.90;85.60
13223;DHT22;6676;45.192;5.722;2022-08-05T11:07:58;33.10;86.30
13223;DHT22;6676;45.192;5.722;2022-08-05T11:10:52;33.30;83.70
13223;DHT22;6676;45.192;5.722;2022-08-05T11:13:53;33.30;82.70
13223;DHT22;6676;45.192;5.722;2022-08-05T11:16:46;33.40;81.20
13223;DHT22;6676;45.192;5.722;2022-08-05T11:19:45;33.40;81.10
13223;DHT22;6676;45.192;5.722;2022-08-05T11:22:41;33.60;80.10
13223;DHT22;6676;45.192;5.722;2022-08-05T11:25:43;33.60;81.00
13223;DHT22;6676;45.192;5.722;2022-08-05T11:28:48;33.60;79.80
13223;DHT22;6676;45.192;5.722;2022-08-05T11:31:41;33.70;80.00
13223;DHT22;6676;45.192;5.722;2022-08-05T11:34:39;33.70;80.00
13223;DHT22;6676;45.192;5.722;2022-08-05T11:38:00;33.70;80.70
13223;DHT22;6676;45.192;5.722;2022-08-05T11:41:00;33.80;80.00
13223;DHT22;6676;45.192;5.722;2022-08-05T11:44:03;33.60;80.40
13223;DHT22;6676;45.192;5.722;2022-08-05T11:47:05;33.70;81.50
13223;DHT22;6676;45.192;5.722;2022-08-05T11:49:58;33.70;81.80
13223;DHT22;6676;45.192;5.722;2022-08-05T11:52:50;33.70;81.90
13223;DHT22;6676;45.192;5.722;2022-08-05T11:55:58;33.70;82.30
13223;DHT22;6676;45.192;5.722;2022-08-05T11:58:50;33.80;82.40
13223;DHT22;6676;45.192;5.722;2022-08-05T12:01:53;33.80;81.40
13223;DHT22;6676;45.192;5.722;2022-08-05T12:04:46;34.00;80.80
13223;DHT22;6676;45.192;5.722;2022-08-05T12:07:40;34.10;80.20
13223;DHT22;6676;45.192;5.722;2022-08-05T12:13:16;34.10;80.40
13223;DHT22;6676;45.192;5.722;2022-08-05T12:16:16;34.20;79.70
13223;DHT22;6676;45.192;5.722;2022-08-05T12:19:04;34.40;79.10
13223;DHT22;6676;45.192;5.722;2022-08-05T12:21:57;34.50;79.50
13223;DHT22;6676;45.192;5.722;2022-08-05T12:24:54;34.60;78.70
13223;DHT22;6676;45.192;5.722;2022-08-05T12:27:47;34.70;77.50
13223;DHT22;6676;45.192;5.722;2022-08-05T12:30:52;34.80;77.00
13223;DHT22;6676;45.192;5.722;2022-08-05T12:33:45;34.80;76.60
13223;DHT22;6676;45.192;5.722;2022-08-05T12:36:40;34.70;76.20
13223;DHT22;6676;45.192;5.722;2022-08-05T12:39:32;34.70;77.20
13223;DHT22;6676;45.192;5.722;2022-08-05T12:45:38;34.90;74.80
13223;DHT22;6676;45.192;5.722;2022-08-05T12:48:38;34.90;74.40
13223;DHT22;6676;45.192;5.722;2022-08-05T12:51:41;35.00;74.10
13223;DHT22;6676;45.192;5.722;2022-08-05T12:54:27;35.00;74.00
13223;DHT22;6676;45.192;5.722;2022-08-05T12:57:19;35.10;73.70
13223;DHT22;6676;45.192;5.722;2022-08-05T13:00:20;35.20;73.10
13223;DHT22;6676;45.192;5.722;2022-08-05T13:03:25;35.20;72.50
13223;DHT22;6676;45.192;5.722;2022-08-05T13:06:21;35.30;72.80
13223;DHT22;6676;45.192;5.722;2022-08-05T13:09:14;35.30;72.70
13223;DHT22;6676;45.192;5.722;2022-08-05T13:12:09;35.30;72.50
13223;DHT22;6676;45.192;5.722;2022-08-05T13:15:02;35.30;71.70
13223;DHT22;6676;45.192;5.722;2022-08-05T13:17:55;35.50;71.30
13223;DHT22;6676;45.192;5.722;2022-08-05T13:20:51;35.70;71.60
13223;DHT22;6676;45.192;5.722;2022-08-05T13:23:52;35.90;70.80
13223;DHT22;6676;45.192;5.722;2022-08-05T13:26:44;35.80;69.70
13223;DHT22;6676;45.192;5.722;2022-08-05T13:29:38;35.80;70.10
13223;DHT22;6676;45.192;5.722;2022-08-05T13:32:32;35.90;70.30
13223;DHT22;6676;45.192;5.722;2022-08-05T13:35:25;35.90;69.60
13223;DHT22;6676;45.192;5.722;2022-08-05T13:38:18;36.10;69.10
13223;DHT22;6676;45.192;5.722;2022-08-05T13:41:11;36.20;69.00
13223;DHT22;6676;45.192;5.722;2022-08-05T13:44:05;36.20;68.20
13223;DHT22;6676;45.192;5.722;2022-08-05T13:47:06;36.10;67.80
13223;DHT22;6676;45.192;5.722;2022-08-05T13:49:57;36.00;68.10
13223;DHT22;6676;45.192;5.722;2022-08-05T13:52:50;35.80;67.90
13223;DHT22;6676;45.192;5.722;2022-08-05T13:55:41;35.90;67.80
13223;DHT22;6676;45.192;5.722;2022-08-05T13:58:34;36.20;67.00
13223;DHT22;6676;45.192;5.722;2022-08-05T14:01:28;36.40;66.80
13223;DHT22;6676;45.192;5.722;2022-08-05T14:04:33;36.80;66.40
13223;DHT22;6676;45.192;5.722;2022-08-05T14:07:44;37.00;66.30
13223;DHT22;6676;45.192;5.722;2022-08-05T14:10:38;36.90;66.20
13223;DHT22;6676;45.192;5.722;2022-08-05T14:13:29;36.80;65.90
13223;DHT22;6676;45.192;5.722;2022-08-05T14:16:29;36.70;66.00
13223;DHT22;6676;45.192;5.722;2022-08-05T14:19:21;36.80;66.00
13223;DHT22;6676;45.192;5.722;2022-08-05T14:22:14;36.70;66.20
13223;DHT22;6676;45.192;5.722;2022-08-05T14:25:09;36.60;66.20
13223;DHT22;6676;45.192;5.722;2022-08-05T14:28:02;36.40;66.20
13223;DHT22;6676;45.192;5.722;2022-08-05T14:30:55;36.40;66.40
13223;DHT22;6676;45.192;5.722;2022-08-05T14:33:46;36.40;66.10
13223;DHT22;6676;45.192;5.722;2022-08-05T14:36:39;36.50;65.40
13223;DHT22;6676;45.192;5.722;2022-08-05T14:39:32;36.40;64.90
13223;DHT22;6676;45.192;5.722;2022-08-05T14:42:25;36.30;65.50
13223;DHT22;6676;45.192;5.722;2022-08-05T14:45:16;36.20;66.10
13223;DHT22;6676;45.192;5.722;2022-08-05T14:48:12;36.00;66.60
13223;DHT22;6676;45.192;5.722;2022-08-05T14:51:05;35.80;66.30
13223;DHT22;6676;45.192;5.722;2022-08-05T14:53:57;35.80;66.20
13223;DHT22;6676;45.192;5.722;2022-08-05T14:56:49;35.70;66.70
13223;DHT22;6676;45.192;5.722;2022-08-05T14:59:42;35.70;66.80
13223;DHT22;6676;45.192;5.722;2022-08-05T15:02:34;35.70;67.40
13223;DHT22;6676;45.192;5.722;2022-08-05T15:05:26;35.50;69.90
13223;DHT22;6676;45.192;5.722;2022-08-05T15:08:19;35.30;72.20
13223;DHT22;6676;45.192;5.722;2022-08-05T15:11:12;35.40;70.00
13223;DHT22;6676;45.192;5.722;2022-08-05T15:14:04;35.20;70.20
13223;DHT22;6676;45.192;5.722;2022-08-05T15:16:56;34.80;75.70
13223;DHT22;6676;45.192;5.722;2022-08-05T15:19:48;34.80;76.50
13223;DHT22;6676;45.192;5.722;2022-08-05T15:23:04;34.50;77.10
13223;DHT22;6676;45.192;5.722;2022-08-05T15:25:58;34.30;78.10
13223;DHT22;6676;45.192;5.722;2022-08-05T15:28:51;34.20;78.60
13223;DHT22;6676;45.192;5.722;2022-08-05T15:31:43;34.00;79.00
13223;DHT22;6676;45.192;5.722;2022-08-05T15:34:36;34.00;78.90
13223;DHT22;6676;45.192;5.722;2022-08-05T15:37:29;34.00;79.20
13223;DHT22;6676;45.192;5.722;2022-08-05T15:40:22;34.10;78.80
13223;DHT22;6676;45.192;5.722;2022-08-05T15:43:15;34.00;78.90
13223;DHT22;6676;45.192;5.722;2022-08-05T15:46:08;34.00;79.20
13223;DHT22;6676;45.192;5.722;2022-08-05T15:48:59;33.90;79.50
13223;DHT22;6676;45.192;5.722;2022-08-05T15:51:52;33.70;79.60
13223;DHT22;6676;45.192;5.722;2022-08-05T15:54:44;33.70;79.90
13223;DHT22;6676;45.192;5.722;2022-08-05T15:57:37;33.60;80.20
13223;DHT22;6676;45.192;5.722;2022-08-05T16:00:37;33.40;80.60
13223;DHT22;6676;45.192;5.722;2022-08-05T16:03:49;33.30;81.20
13223;DHT22;6676;45.192;5.722;2022-08-05T16:06:41;33.20;81.70
13223;DHT22;6676;45.192;5.722;2022-08-05T16:09:32;33.20;82.20
13223;DHT22;6676;45.192;5.722;2022-08-05T16:12:25;33.10;82.40
13223;DHT22;6676;45.192;5.722;2022-08-05T16:15:16;33.10;82.70
13223;DHT22;6676;45.192;5.722;2022-08-05T16:18:08;32.90;82.80
13223;DHT22;6676;45.192;5.722;2022-08-05T16:21:09;32.90;82.70
13223;DHT22;6676;45.192;5.722;2022-08-05T16:24:04;32.90;82.40
13223;DHT22;6676;45.192;5.722;2022-08-05T16:27:00;32.80;82.70
13223;DHT22;6676;45.192;5.722;2022-08-05T16:29:53;32.70;83.00
13223;DHT22;6676;45.192;5.722;2022-08-05T16:32:45;32.70;83.10
13223;DHT22;6676;45.192;5.722;2022-08-05T16:35:38;32.70;83.60
13223;DHT22;6676;45.192;5.722;2022-08-05T16:38:31;32.50;83.80
13223;DHT22;6676;45.192;5.722;2022-08-05T16:41:23;32.50;83.80
13223;DHT22;6676;45.192;5.722;2022-08-05T16:44:17;32.40;84.60
13223;DHT22;6676;45.192;5.722;2022-08-05T16:47:10;32.30;84.60
13223;DHT22;6676;45.192;5.722;2022-08-05T16:50:04;32.30;84.50
13223;DHT22;6676;45.192;5.722;2022-08-05T16:52:57;32.20;84.90
13223;DHT22;6676;45.192;5.722;2022-08-05T16:55:51;32.00;86.00
13223;DHT22;6676;45.192;5.722;2022-08-05T16:58:44;31.80;88.40
13223;DHT22;6676;45.192;5.722;2022-08-05T17:01:36;31.50;90.30
13223;DHT22;6676;45.192;5.722;2022-08-05T17:04:29;31.00;91.80
13223;DHT22;6676;45.192;5.722;2022-08-05T17:07:22;30.60;93.30
13223;DHT22;6676;45.192;5.722;2022-08-05T17:10:15;30.10;94.10
13223;DHT22;6676;45.192;5.722;2022-08-05T17:13:07;29.90;95.50
13223;DHT22;6676;45.192;5.722;2022-08-05T17:15:59;29.80;97.20
13223;DHT22;6676;45.192;5.722;2022-08-05T17:18:52;29.40;98.70
13223;DHT22;6676;45.192;5.722;2022-08-05T17:21:43;29.00;99.90
13223;DHT22;6676;45.192;5.722;2022-08-05T17:24:36;28.90;99.90
13223;DHT22;6676;45.192;5.722;2022-08-05T17:27:30;28.80;99.90
13223;DHT22;6676;45.192;5.722;2022-08-05T17:30:23;28.60;99.90
13223;DHT22;6676;45.192;5.722;2022-08-05T17:33:16;28.30;99.90
13223;DHT22;6676;45.192;5.722;2022-08-05T17:36:09;27.80;99.90
13223;DHT22;6676;45.192;5.722;2022-08-05T17:39:02;27.40;99.90
13223;DHT22;6676;45.192;5.722;2022-08-05T17:41:54;27.30;99.90
13223;DHT22;6676;45.192;5.722;2022-08-05T17:44:47;27.10;99.90
13223;DHT22;6676;45.192;5.722;2022-08-05T17:47:40;26.80;99.90
13223;DHT22;6676;45.192;5.722;2022-08-05T17:50:32;26.60;99.90
13223;DHT22;6676;45.192;5.722;2022-08-05T17:53:23;26.50;99.90
13223;DHT22;6676;45.192;5.722;2022-08-05T17:56:16;26.50;99.90
13223;DHT22;6676;45.192;5.722;2022-08-05T17:59:07;26.40;99.90
13223;DHT22;6676;45.192;5.722;2022-08-05T18:01:59;26.30;99.90
13223;DHT22;6676;45.192;5.722;2022-08-05T18:04:52;26.00;99.90
13223;DHT22;6676;45.192;5.722;2022-08-05T18:07:44;25.90;99.90
13223;DHT22;6676;45.192;5.722;2022-08-05T18:10:36;25.90;99.90
13223;DHT22;6676;45.192;5.722;2022-08-05T18:13:28;25.70;99.90
13223;DHT22;6676;45.192;5.722;2022-08-05T18:16:21;25.30;99.90
13223;DHT22;6676;45.192;5.722;2022-08-05T18:19:13;25.00;99.90
13223;DHT22;6676;45.192;5.722;2022-08-05T18:22:04;24.90;99.90
13223;DHT22;6676;45.192;5.722;2022-08-05T18:24:57;24.70;99.90
13223;DHT22;6676;45.192;5.722;2022-08-05T18:27:50;24.70;99.90
13223;DHT22;6676;45.192;5.722;2022-08-05T18:30:41;24.60;99.90
13223;DHT22;6676;45.192;5.722;2022-08-05T18:33:33;24.80;99.90
13223;DHT22;6676;45.192;5.722;2022-08-05T18:36:25;24.80;99.90
13223;DHT22;6676;45.192;5.722;2022-08-05T18:39:17;24.90;99.90
13223;DHT22;6676;45.192;5.722;2022-08-05T18:42:10;24.80;99.90
13223;DHT22;6676;45.192;5.722;2022-08-05T18:45:02;24.70;99.90
13223;DHT22;6676;45.192;5.722;2022-08-05T18:47:58;24.70;99.90
13223;DHT22;6676;45.192;5.722;2022-08-05T18:50:50;24.60;99.90